sensor_id;sensor_type;location;lat;lon;timestamp;P1;durP1;ratioP1;P2;durP2;ratioP2
40164;SDS011;25882;51.120;17.248;2023-05-21T07:28:16;7.88;;;6.57;;
40164;SDS011;25882;51.120;17.248;2023-05-21T07:30:42;8.93;;;6.35;;
40164;SDS011;25882;51.120;17.248;2023-05-21T07:33:08;7.30;;;5.68;;
40164;SDS011;25882;51.120;17.248;2023-05-21T07:35:34;10.27;;;6.20;;
40164;SDS011;25882;51.120;17.248;2023-05-21T07:38:02;9.60;;;6.65;;
40164;SDS011;25882;51.120;17.248;2023-05-21T07:40:28;9.13;;;5.30;;
40164;SDS011;25882;51.120;17.248;2023-05-21T07:42:54;8.88;;;5.95;;
40164;SDS011;25882;51.120;17.248;2023-05-21T07:45:20;8.98;;;5.93;;
40164;SDS011;25882;51.120;17.248;2023-05-21T07:47:46;11.52;;;6.43;;
40164;SDS011;25882;51.120;17.248;2023-05-21T07:50:12;7.57;;;5.95;;
40164;SDS011;25882;51.120;17.248;2023-05-21T07:52:38;8.90;;;5.45;;
40164;SDS011;25882;51.120;17.248;2023-05-21T07:55:07;7.53;;;5.63;;
40164;SDS011;25882;51.120;17.248;2023-05-21T07:57:33;10.18;;;6.40;;
40164;SDS011;25882;51.120;17.248;2023-05-21T07:59:59;7.57;;;6.28;;
40164;SDS011;25882;51.120;17.248;2023-05-21T08:02:26;7.22;;;6.00;;
40164;SDS011;25882;51.120;17.248;2023-05-21T08:04:52;9.32;;;5.82;;
40164;SDS011;25882;51.120;17.248;2023-05-21T08:07:19;7.18;;;5.40;;
40164;SDS011;25882;51.120;17.248;2023-05-21T08:09:46;8.82;;;6.63;;
40164;SDS011;25882;51.120;17.248;2023-05-21T08:12:13;7.78;;;6.13;;
40164;SDS011;25882;51.120;17.248;2023-05-21T08:14:40;7.53;;;5.95;;
40164;SDS011;25882;51.120;17.248;2023-05-21T08:17:07;7.20;;;5.30;;
40164;SDS011;25882;51.120;17.248;2023-05-21T08:19:33;8.07;;;5.85;;
40164;SDS011;25882;51.120;17.248;2023-05-21T08:21:59;7.57;;;6.03;;
40164;SDS011;25882;51.120;17.248;2023-05-21T08:24:26;8.23;;;5.50;;
40164;SDS011;25882;51.120;17.248;2023-05-21T08:26:52;5.78;;;4.72;;
40164;SDS011;25882;51.120;17.248;2023-05-21T08:29:19;6.63;;;5.07;;
40164;SDS011;25882;51.120;17.248;2023-05-21T08:31:45;12.50;;;5.63;;
40164;SDS011;25882;51.120;17.248;2023-05-21T08:34:11;7.38;;;5.53;;
40164;SDS011;25882;51.120;17.248;2023-05-21T08:36:37;10.73;;;5.82;;
40164;SDS011;25882;51.120;17.248;2023-05-21T08:39:07;7.88;;;5.00;;
40164;SDS011;25882;51.120;17.248;2023-05-21T08:41:34;10.75;;;5.45;;
40164;SDS011;25882;51.120;17.248;2023-05-21T08:44:00;8.95;;;5.03;;
40164;SDS011;25882;51.120;17.248;2023-05-21T08:46:30;7.93;;;5.78;;
40164;SDS011;25882;51.120;17.248;2023-05-21T08:48:59;6.55;;;4.75;;
40164;SDS011;25882;51.120;17.248;2023-05-21T08:51:27;7.90;;;5.25;;
40164;SDS011;25882;51.120;17.248;2023-05-21T08:53:53;6.93;;;4.90;;
40164;SDS011;25882;51.120;17.248;2023-05-21T08:56:20;8.10;;;5.13;;
40164;SDS011;25882;51.120;17.248;2023-05-21T08:58:46;6.10;;;5.00;;
40164;SDS011;25882;51.120;17.248;2023-05-21T09:01:13;5.78;;;4.70;;
40164;SDS011;25882;51.120;17.248;2023-05-21T09:03:40;6.70;;;4.40;;
40164;SDS011;25882;51.120;17.248;2023-05-21T09:06:08;6.00;;;4.90;;
40164;SDS011;25882;51.120;17.248;2023-05-21T09:08:35;6.20;;;4.53;;
40164;SDS011;25882;51.120;17.248;2023-05-21T09:11:03;4.88;;;4.38;;
40164;SDS011;25882;51.120;17.248;2023-05-21T09:13:29;5.72;;;4.32;;
40164;SDS011;25882;51.120;17.248;2023-05-21T09:15:57;5.90;;;4.28;;
40164;SDS011;25882;51.120;17.248;2023-05-21T09:18:23;5.53;;;3.88;;
40164;SDS011;25882;51.120;17.248;2023-05-21T09:20:53;6.82;;;4.20;;
40164;SDS011;25882;51.120;17.248;2023-05-21T09:23:21;5.20;;;4.07;;
40164;SDS011;25882;51.120;17.248;2023-05-21T09:25:47;6.65;;;3.55;;
40164;SDS011;25882;51.120;17.248;2023-05-21T09:28:14;5.95;;;4.10;;
40164;SDS011;25882;51.120;17.248;2023-05-21T09:30:44;9.38;;;4.18;;
40164;SDS011;25882;51.120;17.248;2023-05-21T09:33:11;7.13;;;4.18;;
40164;SDS011;25882;51.120;17.248;2023-05-21T09:35:43;6.13;;;4.28;;
40164;SDS011;25882;51.120;17.248;2023-05-21T09:38:11;4.60;;;3.83;;
40164;SDS011;25882;51.120;17.248;2023-05-21T09:40:38;5.93;;;3.85;;
40164;SDS011;25882;51.120;17.248;2023-05-21T09:43:08;5.38;;;3.80;;
40164;SDS011;25882;51.120;17.248;2023-05-21T09:45:38;4.15;;;3.33;;
40164;SDS011;25882;51.120;17.248;2023-05-21T09:48:14;5.40;;;3.30;;
40164;SDS011;25882;51.120;17.248;2023-05-21T09:50:41;5.65;;;4.05;;
40164;SDS011;25882;51.120;17.248;2023-05-21T09:53:11;7.57;;;3.50;;
40164;SDS011;25882;51.120;17.248;2023-05-21T09:55:38;5.82;;;3.72;;
40164;SDS011;25882;51.120;17.248;2023-05-21T09:58:05;5.28;;;4.13;;
40164;SDS011;25882;51.120;17.248;2023-05-21T10:00:32;5.63;;;3.20;;
40164;SDS011;25882;51.120;17.248;2023-05-21T10:02:59;5.70;;;3.35;;
40164;SDS011;25882;51.120;17.248;2023-05-21T10:05:26;4.22;;;3.58;;
40164;SDS011;25882;51.120;17.248;2023-05-21T10:07:56;4.05;;;2.80;;
40164;SDS011;25882;51.120;17.248;2023-05-21T10:10:27;3.95;;;2.58;;
40164;SDS011;25882;51.120;17.248;2023-05-21T10:12:54;5.15;;;3.00;;
40164;SDS011;25882;51.120;17.248;2023-05-21T10:15:25;6.88;;;2.90;;
40164;SDS011;25882;51.120;17.248;2023-05-21T10:17:53;8.20;;;2.80;;
40164;SDS011;25882;51.120;17.248;2023-05-21T10:20:20;4.10;;;3.05;;
40164;SDS011;25882;51.120;17.248;2023-05-21T10:22:46;6.45;;;3.05;;
40164;SDS011;25882;51.120;17.248;2023-05-21T10:25:13;4.43;;;2.92;;
40164;SDS011;25882;51.120;17.248;2023-05-21T10:27:40;9.27;;;3.10;;
40164;SDS011;25882;51.120;17.248;2023-05-21T10:30:07;6.47;;;3.30;;
40164;SDS011;25882;51.120;17.248;2023-05-21T10:32:34;6.78;;;3.28;;
40164;SDS011;25882;51.120;17.248;2023-05-21T10:35:01;5.13;;;3.03;;
40164;SDS011;25882;51.120;17.248;2023-05-21T10:37:27;6.78;;;3.55;;
40164;SDS011;25882;51.120;17.248;2023-05-21T10:39:55;7.60;;;2.88;;
40164;SDS011;25882;51.120;17.248;2023-05-21T10:42:23;3.13;;;2.55;;
40164;SDS011;25882;51.120;17.248;2023-05-21T10:45:10;5.28;;;2.83;;
40164;SDS011;25882;51.120;17.248;2023-05-21T10:47:46;6.78;;;3.75;;
40164;SDS011;25882;51.120;17.248;2023-05-21T10:50:27;5.63;;;3.22;;
40164;SDS011;25882;51.120;17.248;2023-05-21T10:53:02;6.23;;;2.93;;
40164;SDS011;25882;51.120;17.248;2023-05-21T10:55:37;5.60;;;2.38;;
40164;SDS011;25882;51.120;17.248;2023-05-21T10:58:19;6.18;;;2.80;;
40164;SDS011;25882;51.120;17.248;2023-05-21T11:01:04;11.63;;;3.03;;
40164;SDS011;25882;51.120;17.248;2023-05-21T11:03:31;3.50;;;2.58;;
40164;SDS011;25882;51.120;17.248;2023-05-21T11:05:58;4.68;;;2.80;;
40164;SDS011;25882;51.120;17.248;2023-05-21T11:08:27;7.32;;;3.10;;
40164;SDS011;25882;51.120;17.248;2023-05-21T11:11:00;3.42;;;2.50;;
40164;SDS011;25882;51.120;17.248;2023-05-21T11:13:27;5.53;;;2.90;;
40164;SDS011;25882;51.120;17.248;2023-05-21T11:16:07;6.35;;;2.90;;
40164;SDS011;25882;51.120;17.248;2023-05-21T11:21:27;9.10;;;3.20;;
40164;SDS011;25882;51.120;17.248;2023-05-21T11:23:59;6.22;;;3.15;;
40164;SDS011;25882;51.120;17.248;2023-05-21T11:26:31;4.97;;;3.08;;
40164;SDS011;25882;51.120;17.248;2023-05-21T11:29:30;5.53;;;2.80;;
40164;SDS011;25882;51.120;17.248;2023-05-21T11:32:06;4.60;;;2.90;;
40164;SDS011;25882;51.120;17.248;2023-05-21T11:34:36;4.65;;;2.88;;
40164;SDS011;25882;51.120;17.248;2023-05-21T11:39:53;4.75;;;2.70;;
40164;SDS011;25882;51.120;17.248;2023-05-21T11:42:27;5.53;;;2.60;;
40164;SDS011;25882;51.120;17.248;2023-05-21T11:44:56;4.95;;;2.80;;
40164;SDS011;25882;51.120;17.248;2023-05-21T11:47:29;4.72;;;2.75;;
40164;SDS011;25882;51.120;17.248;2023-05-21T11:49:57;3.70;;;3.08;;
40164;SDS011;25882;51.120;17.248;2023-05-21T11:52:24;6.93;;;3.85;;
40164;SDS011;25882;51.120;17.248;2023-05-21T11:54:52;3.47;;;3.03;;
40164;SDS011;25882;51.120;17.248;2023-05-21T11:59:48;5.20;;;2.50;;
40164;SDS011;25882;51.120;17.248;2023-05-21T12:02:18;6.47;;;3.38;;
40164;SDS011;25882;51.120;17.248;2023-05-21T12:04:46;3.60;;;2.90;;
40164;SDS011;25882;51.120;17.248;2023-05-21T12:07:13;6.43;;;2.88;;
40164;SDS011;25882;51.120;17.248;2023-05-21T12:09:41;7.43;;;3.03;;
40164;SDS011;25882;51.120;17.248;2023-05-21T12:12:08;7.70;;;2.92;;
40164;SDS011;25882;51.120;17.248;2023-05-21T12:14:35;6.10;;;2.80;;
40164;SDS011;25882;51.120;17.248;2023-05-21T12:17:02;8.07;;;2.70;;
40164;SDS011;25882;51.120;17.248;2023-05-21T12:19:31;7.28;;;2.95;;
40164;SDS011;25882;51.120;17.248;2023-05-21T12:22:00;3.92;;;2.85;;
40164;SDS011;25882;51.120;17.248;2023-05-21T12:24:26;5.03;;;3.25;;
40164;SDS011;25882;51.120;17.248;2023-05-21T12:26:53;5.40;;;2.67;;
40164;SDS011;25882;51.120;17.248;2023-05-21T12:29:19;6.07;;;3.13;;
40164;SDS011;25882;51.120;17.248;2023-05-21T12:31:48;5.13;;;2.97;;
40164;SDS011;25882;51.120;17.248;2023-05-21T12:34:14;4.88;;;2.65;;
40164;SDS011;25882;51.120;17.248;2023-05-21T12:36:43;5.55;;;3.40;;
40164;SDS011;25882;51.120;17.248;2023-05-21T12:39:16;4.72;;;3.15;;
40164;SDS011;25882;51.120;17.248;2023-05-21T12:41:43;6.95;;;2.83;;
40164;SDS011;25882;51.120;17.248;2023-05-21T12:44:10;3.40;;;2.50;;
40164;SDS011;25882;51.120;17.248;2023-05-21T12:46:36;4.18;;;2.70;;
40164;SDS011;25882;51.120;17.248;2023-05-21T12:49:02;2.97;;;2.53;;
40164;SDS011;25882;51.120;17.248;2023-05-21T12:51:36;6.55;;;2.75;;
40164;SDS011;25882;51.120;17.248;2023-05-21T12:54:03;3.67;;;2.90;;
40164;SDS011;25882;51.120;17.248;2023-05-21T12:56:31;5.85;;;3.20;;
40164;SDS011;25882;51.120;17.248;2023-05-21T12:59:11;5.28;;;3.15;;
40164;SDS011;25882;51.120;17.248;2023-05-21T13:01:38;5.18;;;3.28;;
40164;SDS011;25882;51.120;17.248;2023-05-21T13:04:04;4.70;;;2.78;;
40164;SDS011;25882;51.120;17.248;2023-05-21T13:06:40;5.15;;;3.35;;
40164;SDS011;25882;51.120;17.248;2023-05-21T13:09:06;5.43;;;3.13;;
40164;SDS011;25882;51.120;17.248;2023-05-21T13:11:34;3.63;;;2.83;;
40164;SDS011;25882;51.120;17.248;2023-05-21T13:14:00;4.05;;;2.90;;
40164;SDS011;25882;51.120;17.248;2023-05-21T13:16:27;5.10;;;3.05;;
40164;SDS011;25882;51.120;17.248;2023-05-21T13:18:52;2.92;;;2.63;;
40164;SDS011;25882;51.120;17.248;2023-05-21T13:21:19;3.60;;;2.60;;
40164;SDS011;25882;51.120;17.248;2023-05-21T13:23:45;4.90;;;3.13;;
40164;SDS011;25882;51.120;17.248;2023-05-21T13:26:11;6.47;;;3.00;;
40164;SDS011;25882;51.120;17.248;2023-05-21T13:28:38;8.82;;;2.65;;
40164;SDS011;25882;51.120;17.248;2023-05-21T13:31:05;4.60;;;2.85;;
40164;SDS011;25882;51.120;17.248;2023-05-21T13:33:31;7.25;;;2.60;;
40164;SDS011;25882;51.120;17.248;2023-05-21T13:35:57;5.97;;;3.03;;
40164;SDS011;25882;51.120;17.248;2023-05-21T13:38:23;5.10;;;2.50;;
40164;SDS011;25882;51.120;17.248;2023-05-21T13:40:49;7.78;;;2.90;;
40164;SDS011;25882;51.120;17.248;2023-05-21T13:43:15;4.43;;;2.90;;
40164;SDS011;25882;51.120;17.248;2023-05-21T13:45:43;4.22;;;2.85;;
40164;SDS011;25882;51.120;17.248;2023-05-21T13:48:09;4.95;;;2.72;;
40164;SDS011;25882;51.120;17.248;2023-05-21T13:50:36;4.22;;;3.05;;
40164;SDS011;25882;51.120;17.248;2023-05-21T13:53:02;3.80;;;2.53;;
40164;SDS011;25882;51.120;17.248;2023-05-21T13:55:29;5.75;;;2.60;;
40164;SDS011;25882;51.120;17.248;2023-05-21T13:57:54;3.95;;;2.70;;
40164;SDS011;25882;51.120;17.248;2023-05-21T14:00:21;4.95;;;2.88;;
40164;SDS011;25882;51.120;17.248;2023-05-21T14:02:48;4.25;;;2.90;;
40164;SDS011;25882;51.120;17.248;2023-05-21T14:05:15;3.97;;;2.47;;
40164;SDS011;25882;51.120;17.248;2023-05-21T14:07:41;4.90;;;2.40;;
40164;SDS011;25882;51.120;17.248;2023-05-21T14:10:08;5.35;;;2.70;;
40164;SDS011;25882;51.120;17.248;2023-05-21T14:12:34;6.15;;;2.60;;
40164;SDS011;25882;51.120;17.248;2023-05-21T14:15:00;3.55;;;2.47;;
40164;SDS011;25882;51.120;17.248;2023-05-21T14:17:26;6.25;;;2.55;;
40164;SDS011;25882;51.120;17.248;2023-05-21T14:19:53;8.85;;;3.20;;
40164;SDS011;25882;51.120;17.248;2023-05-21T14:22:20;4.63;;;2.50;;
40164;SDS011;25882;51.120;17.248;2023-05-21T14:24:46;4.18;;;2.75;;
40164;SDS011;25882;51.120;17.248;2023-05-21T14:27:12;5.70;;;2.70;;
40164;SDS011;25882;51.120;17.248;2023-05-21T14:29:39;6.30;;;2.90;;
40164;SDS011;25882;51.120;17.248;2023-05-21T14:32:06;3.72;;;2.80;;
40164;SDS011;25882;51.120;17.248;2023-05-21T14:34:32;4.03;;;2.95;;
40164;SDS011;25882;51.120;17.248;2023-05-21T14:37:00;3.00;;;2.47;;
40164;SDS011;25882;51.120;17.248;2023-05-21T14:39:26;3.42;;;2.83;;
40164;SDS011;25882;51.120;17.248;2023-05-21T14:41:52;4.50;;;2.53;;
40164;SDS011;25882;51.120;17.248;2023-05-21T14:44:18;5.10;;;2.70;;
40164;SDS011;25882;51.120;17.248;2023-05-21T14:46:45;4.93;;;2.92;;
40164;SDS011;25882;51.120;17.248;2023-05-21T14:49:11;6.03;;;2.60;;
40164;SDS011;25882;51.120;17.248;2023-05-21T14:51:38;4.40;;;2.38;;
40164;SDS011;25882;51.120;17.248;2023-05-21T14:54:07;3.92;;;2.85;;
40164;SDS011;25882;51.120;17.248;2023-05-21T14:56:33;4.97;;;2.85;;
40164;SDS011;25882;51.120;17.248;2023-05-21T14:58:59;5.63;;;3.22;;
40164;SDS011;25882;51.120;17.248;2023-05-21T15:01:25;5.22;;;2.45;;
40164;SDS011;25882;51.120;17.248;2023-05-21T15:03:52;5.32;;;2.78;;
40164;SDS011;25882;51.120;17.248;2023-05-21T15:06:18;6.70;;;2.72;;
40164;SDS011;25882;51.120;17.248;2023-05-21T15:08:45;8.35;;;2.42;;
40164;SDS011;25882;51.120;17.248;2023-05-21T15:11:12;3.45;;;2.72;;
40164;SDS011;25882;51.120;17.248;2023-05-21T15:13:38;7.53;;;2.85;;
40164;SDS011;25882;51.120;17.248;2023-05-21T15:16:05;6.72;;;2.55;;
40164;SDS011;25882;51.120;17.248;2023-05-21T15:18:31;6.28;;;2.60;;
40164;SDS011;25882;51.120;17.248;2023-05-21T15:20:57;3.35;;;2.08;;
40164;SDS011;25882;51.120;17.248;2023-05-21T15:23:24;3.80;;;2.58;;
40164;SDS011;25882;51.120;17.248;2023-05-21T15:25:50;3.78;;;2.60;;
40164;SDS011;25882;51.120;17.248;2023-05-21T15:28:18;3.63;;;2.20;;
40164;SDS011;25882;51.120;17.248;2023-05-21T15:30:44;6.38;;;2.55;;
40164;SDS011;25882;51.120;17.248;2023-05-21T15:33:10;6.55;;;2.50;;
40164;SDS011;25882;51.120;17.248;2023-05-21T15:35:36;3.78;;;2.58;;
40164;SDS011;25882;51.120;17.248;2023-05-21T15:38:03;4.65;;;2.70;;
40164;SDS011;25882;51.120;17.248;2023-05-21T15:40:28;3.50;;;2.15;;
40164;SDS011;25882;51.120;17.248;2023-05-21T15:42:56;3.55;;;2.63;;
40164;SDS011;25882;51.120;17.248;2023-05-21T15:45:24;3.25;;;2.50;;
40164;SDS011;25882;51.120;17.248;2023-05-21T15:47:50;3.47;;;2.30;;
40164;SDS011;25882;51.120;17.248;2023-05-21T15:50:19;4.22;;;2.72;;
40164;SDS011;25882;51.120;17.248;2023-05-21T15:52:46;4.93;;;2.22;;
40164;SDS011;25882;51.120;17.248;2023-05-21T15:55:12;4.28;;;2.90;;
40164;SDS011;25882;51.120;17.248;2023-05-21T15:57:38;4.05;;;2.60;;
40164;SDS011;25882;51.120;17.248;2023-05-21T16:00:05;3.65;;;2.42;;
40164;SDS011;25882;51.120;17.248;2023-05-21T16:02:33;4.13;;;2.65;;
40164;SDS011;25882;51.120;17.248;2023-05-21T16:04:59;4.80;;;2.55;;
40164;SDS011;25882;51.120;17.248;2023-05-21T16:07:26;4.10;;;2.70;;
40164;SDS011;25882;51.120;17.248;2023-05-21T16:09:52;5.03;;;2.25;;
40164;SDS011;25882;51.120;17.248;2023-05-21T16:12:20;6.18;;;2.70;;
40164;SDS011;25882;51.120;17.248;2023-05-21T16:14:47;3.33;;;2.30;;
40164;SDS011;25882;51.120;17.248;2023-05-21T16:17:14;3.08;;;2.10;;
40164;SDS011;25882;51.120;17.248;2023-05-21T16:19:41;5.63;;;2.40;;
40164;SDS011;25882;51.120;17.248;2023-05-21T16:22:07;4.30;;;2.35;;
40164;SDS011;25882;51.120;17.248;2023-05-21T16:24:33;4.43;;;2.50;;
40164;SDS011;25882;51.120;17.248;2023-05-21T16:27:00;5.25;;;2.75;;
40164;SDS011;25882;51.120;17.248;2023-05-21T16:29:26;5.00;;;2.63;;
40164;SDS011;25882;51.120;17.248;2023-05-21T16:31:52;4.70;;;2.70;;
40164;SDS011;25882;51.120;17.248;2023-05-21T16:34:18;5.90;;;2.83;;
40164;SDS011;25882;51.120;17.248;2023-05-21T16:36:46;3.83;;;2.58;;
40164;SDS011;25882;51.120;17.248;2023-05-21T16:39:12;3.47;;;2.60;;
40164;SDS011;25882;51.120;17.248;2023-05-21T16:41:38;5.00;;;3.28;;
40164;SDS011;25882;51.120;17.248;2023-05-21T16:44:04;3.25;;;2.47;;
40164;SDS011;25882;51.120;17.248;2023-05-21T16:46:30;7.20;;;2.90;;
40164;SDS011;25882;51.120;17.248;2023-05-21T16:48:56;3.85;;;2.58;;
40164;SDS011;25882;51.120;17.248;2023-05-21T16:51:22;6.05;;;2.60;;
40164;SDS011;25882;51.120;17.248;2023-05-21T16:53:50;4.82;;;2.50;;
40164;SDS011;25882;51.120;17.248;2023-05-21T16:56:16;4.90;;;2.30;;
40164;SDS011;25882;51.120;17.248;2023-05-21T16:58:44;5.28;;;2.47;;
40164;SDS011;25882;51.120;17.248;2023-05-21T17:01:10;10.45;;;3.00;;
40164;SDS011;25882;51.120;17.248;2023-05-21T17:03:36;6.15;;;2.67;;
40164;SDS011;25882;51.120;17.248;2023-05-21T17:06:02;5.22;;;2.50;;
40164;SDS011;25882;51.120;17.248;2023-05-21T17:08:29;5.28;;;2.38;;
40164;SDS011;25882;51.120;17.248;2023-05-21T17:10:56;6.85;;;2.50;;
40164;SDS011;25882;51.120;17.248;2023-05-21T17:13:23;3.05;;;2.10;;
40164;SDS011;25882;51.120;17.248;2023-05-21T17:15:49;4.38;;;2.50;;
40164;SDS011;25882;51.120;17.248;2023-05-21T17:18:15;5.47;;;2.47;;
40164;SDS011;25882;51.120;17.248;2023-05-21T17:20:42;5.45;;;2.47;;
40164;SDS011;25882;51.120;17.248;2023-05-21T17:23:09;5.10;;;2.47;;
40164;SDS011;25882;51.120;17.248;2023-05-21T17:25:35;6.18;;;2.47;;
40164;SDS011;25882;51.120;17.248;2023-05-21T17:28:03;7.93;;;2.50;;
40164;SDS011;25882;51.120;17.248;2023-05-21T17:30:30;5.03;;;2.90;;
40164;SDS011;25882;51.120;17.248;2023-05-21T17:32:56;3.75;;;2.42;;
40164;SDS011;25882;51.120;17.248;2023-05-21T17:35:22;4.60;;;2.78;;
40164;SDS011;25882;51.120;17.248;2023-05-21T17:37:49;3.78;;;2.28;;
40164;SDS011;25882;51.120;17.248;2023-05-21T17:40:17;4.88;;;2.92;;
40164;SDS011;25882;51.120;17.248;2023-05-21T17:42:45;3.75;;;2.53;;
40164;SDS011;25882;51.120;17.248;2023-05-21T17:45:13;3.15;;;2.60;;
40164;SDS011;25882;51.120;17.248;2023-05-21T17:47:39;6.88;;;3.17;;
40164;SDS011;25882;51.120;17.248;2023-05-21T17:50:06;4.57;;;2.83;;
40164;SDS011;25882;51.120;17.248;2023-05-21T17:52:33;3.20;;;2.40;;
40164;SDS011;25882;51.120;17.248;2023-05-21T17:54:59;10.02;;;3.85;;
40164;SDS011;25882;51.120;17.248;2023-05-21T17:57:26;6.15;;;3.15;;
40164;SDS011;25882;51.120;17.248;2023-05-21T17:59:52;6.85;;;2.95;;
40164;SDS011;25882;51.120;17.248;2023-05-21T18:02:20;5.30;;;3.28;;
40164;SDS011;25882;51.120;17.248;2023-05-21T18:04:48;4.70;;;3.10;;
40164;SDS011;25882;51.120;17.248;2023-05-21T18:07:14;7.40;;;3.38;;
40164;SDS011;25882;51.120;17.248;2023-05-21T18:09:40;6.50;;;3.05;;
40164;SDS011;25882;51.120;17.248;2023-05-21T18:12:07;6.18;;;3.08;;
40164;SDS011;25882;51.120;17.248;2023-05-21T18:14:33;5.93;;;2.97;;
40164;SDS011;25882;51.120;17.248;2023-05-21T18:16:59;8.43;;;3.85;;
40164;SDS011;25882;51.120;17.248;2023-05-21T18:19:27;7.20;;;3.20;;
40164;SDS011;25882;51.120;17.248;2023-05-21T18:21:53;4.57;;;3.03;;
40164;SDS011;25882;51.120;17.248;2023-05-21T18:24:19;6.43;;;3.95;;
40164;SDS011;25882;51.120;17.248;2023-05-21T18:26:47;5.78;;;3.38;;
40164;SDS011;25882;51.120;17.248;2023-05-21T18:29:14;8.35;;;3.60;;
40164;SDS011;25882;51.120;17.248;2023-05-21T18:31:41;5.80;;;3.28;;
40164;SDS011;25882;51.120;17.248;2023-05-21T18:34:08;5.90;;;3.63;;
40164;SDS011;25882;51.120;17.248;2023-05-21T18:36:36;6.65;;;3.25;;
40164;SDS011;25882;51.120;17.248;2023-05-21T18:39:03;4.95;;;3.33;;
40164;SDS011;25882;51.120;17.248;2023-05-21T18:41:31;5.45;;;3.15;;
40164;SDS011;25882;51.120;17.248;2023-05-21T18:43:58;4.82;;;3.20;;
40164;SDS011;25882;51.120;17.248;2023-05-21T18:46:26;9.98;;;4.03;;
40164;SDS011;25882;51.120;17.248;2023-05-21T18:48:52;5.20;;;3.30;;
40164;SDS011;25882;51.120;17.248;2023-05-21T18:51:18;4.28;;;3.20;;
40164;SDS011;25882;51.120;17.248;2023-05-21T18:53:46;5.90;;;3.40;;
40164;SDS011;25882;51.120;17.248;2023-05-21T18:56:12;4.72;;;3.13;;
40164;SDS011;25882;51.120;17.248;2023-05-21T18:58:39;5.13;;;3.00;;
40164;SDS011;25882;51.120;17.248;2023-05-21T19:01:05;5.72;;;3.50;;
40164;SDS011;25882;51.120;17.248;2023-05-21T19:03:32;4.75;;;3.60;;
40164;SDS011;25882;51.120;17.248;2023-05-21T19:05:58;4.70;;;3.75;;
40164;SDS011;25882;51.120;17.248;2023-05-21T19:08:24;6.55;;;3.80;;
40164;SDS011;25882;51.120;17.248;2023-05-21T19:10:51;4.68;;;3.85;;
40164;SDS011;25882;51.120;17.248;2023-05-21T19:13:18;5.82;;;3.10;;
40164;SDS011;25882;51.120;17.248;2023-05-21T19:15:44;4.65;;;3.05;;
40164;SDS011;25882;51.120;17.248;2023-05-21T19:18:13;4.95;;;3.58;;
40164;SDS011;25882;51.120;17.248;2023-05-21T19:20:39;7.15;;;3.42;;
40164;SDS011;25882;51.120;17.248;2023-05-21T19:23:06;6.30;;;3.28;;
40164;SDS011;25882;51.120;17.248;2023-05-21T19:25:32;6.85;;;3.65;;
40164;SDS011;25882;51.120;17.248;2023-05-21T19:28:00;5.78;;;3.38;;
40164;SDS011;25882;51.120;17.248;2023-05-21T19:30:27;6.28;;;3.58;;
40164;SDS011;25882;51.120;17.248;2023-05-21T19:32:55;4.72;;;3.55;;
40164;SDS011;25882;51.120;17.248;2023-05-21T19:35:21;5.68;;;3.35;;
40164;SDS011;25882;51.120;17.248;2023-05-21T19:37:48;4.47;;;3.15;;
40164;SDS011;25882;51.120;17.248;2023-05-21T19:40:14;5.75;;;3.13;;
40164;SDS011;25882;51.120;17.248;2023-05-21T19:42:43;6.28;;;3.80;;
40164;SDS011;25882;51.120;17.248;2023-05-21T19:45:10;6.20;;;3.85;;
40164;SDS011;25882;51.120;17.248;2023-05-21T19:47:38;5.35;;;3.58;;
40164;SDS011;25882;51.120;17.248;2023-05-21T19:50:06;6.70;;;3.92;;
40164;SDS011;25882;51.120;17.248;2023-05-21T19:52:35;8.88;;;4.60;;
40164;SDS011;25882;51.120;17.248;2023-05-21T19:55:01;7.82;;;4.32;;
40164;SDS011;25882;51.120;17.248;2023-05-21T19:57:33;6.30;;;3.67;;
40164;SDS011;25882;51.120;17.248;2023-05-21T19:59:59;12.48;;;4.65;;
40164;SDS011;25882;51.120;17.248;2023-05-21T20:02:27;7.03;;;4.35;;
40164;SDS011;25882;51.120;17.248;2023-05-21T20:04:53;9.07;;;4.38;;
40164;SDS011;25882;51.120;17.248;2023-05-21T20:07:21;6.90;;;4.18;;
40164;SDS011;25882;51.120;17.248;2023-05-21T20:09:47;10.50;;;5.05;;
40164;SDS011;25882;51.120;17.248;2023-05-21T20:12:13;7.03;;;4.47;;
40164;SDS011;25882;51.120;17.248;2023-05-21T20:14:40;6.68;;;3.75;;
40164;SDS011;25882;51.120;17.248;2023-05-21T20:17:07;7.55;;;4.97;;
40164;SDS011;25882;51.120;17.248;2023-05-21T20:19:34;7.72;;;4.63;;
40164;SDS011;25882;51.120;17.248;2023-05-21T20:22:02;7.93;;;4.47;;
40164;SDS011;25882;51.120;17.248;2023-05-21T20:24:28;6.18;;;4.00;;
40164;SDS011;25882;51.120;17.248;2023-05-21T20:26:54;8.68;;;4.53;;
40164;SDS011;25882;51.120;17.248;2023-05-21T20:29:20;8.68;;;4.85;;
40164;SDS011;25882;51.120;17.248;2023-05-21T20:31:46;6.88;;;4.05;;
40164;SDS011;25882;51.120;17.248;2023-05-21T20:34:12;5.88;;;4.00;;
40164;SDS011;25882;51.120;17.248;2023-05-21T20:36:43;6.25;;;4.15;;
40164;SDS011;25882;51.120;17.248;2023-05-21T20:39:11;8.70;;;4.20;;
40164;SDS011;25882;51.120;17.248;2023-05-21T20:41:38;8.95;;;4.63;;
40164;SDS011;25882;51.120;17.248;2023-05-21T20:44:04;10.32;;;4.70;;
40164;SDS011;25882;51.120;17.248;2023-05-21T20:46:31;6.13;;;3.88;;
40164;SDS011;25882;51.120;17.248;2023-05-21T20:48:58;12.60;;;5.13;;
40164;SDS011;25882;51.120;17.248;2023-05-21T20:51:25;8.73;;;4.82;;
40164;SDS011;25882;51.120;17.248;2023-05-21T20:53:52;8.35;;;4.32;;
40164;SDS011;25882;51.120;17.248;2023-05-21T20:56:19;7.25;;;4.97;;
40164;SDS011;25882;51.120;17.248;2023-05-21T20:58:45;7.88;;;4.60;;
40164;SDS011;25882;51.120;17.248;2023-05-21T21:01:11;5.78;;;4.30;;
40164;SDS011;25882;51.120;17.248;2023-05-21T21:03:38;6.43;;;4.75;;
40164;SDS011;25882;51.120;17.248;2023-05-21T21:06:05;8.40;;;4.10;;
40164;SDS011;25882;51.120;17.248;2023-05-21T21:08:34;7.57;;;4.60;;
40164;SDS011;25882;51.120;17.248;2023-05-21T21:11:01;7.40;;;4.53;;
40164;SDS011;25882;51.120;17.248;2023-05-21T21:13:27;6.90;;;4.30;;
40164;SDS011;25882;51.120;17.248;2023-05-21T21:15:53;6.55;;;4.18;;
40164;SDS011;25882;51.120;17.248;2023-05-21T21:18:19;7.60;;;4.28;;
40164;SDS011;25882;51.120;17.248;2023-05-21T21:20:45;8.40;;;4.47;;
40164;SDS011;25882;51.120;17.248;2023-05-21T21:23:13;7.00;;;4.47;;
40164;SDS011;25882;51.120;17.248;2023-05-21T21:25:39;9.52;;;3.83;;
40164;SDS011;25882;51.120;17.248;2023-05-21T21:28:07;7.38;;;4.60;;
40164;SDS011;25882;51.120;17.248;2023-05-21T21:30:33;6.03;;;3.63;;
40164;SDS011;25882;51.120;17.248;2023-05-21T21:32:59;7.47;;;4.22;;
40164;SDS011;25882;51.120;17.248;2023-05-21T21:35:25;7.47;;;4.22;;
40164;SDS011;25882;51.120;17.248;2023-05-21T21:37:51;5.63;;;4.35;;
40164;SDS011;25882;51.120;17.248;2023-05-21T21:40:17;12.07;;;4.28;;
40164;SDS011;25882;51.120;17.248;2023-05-21T21:42:43;8.90;;;4.70;;
40164;SDS011;25882;51.120;17.248;2023-05-21T21:45:11;8.27;;;4.45;;
40164;SDS011;25882;51.120;17.248;2023-05-21T21:47:37;9.07;;;4.18;;
40164;SDS011;25882;51.120;17.248;2023-05-21T21:50:04;6.53;;;3.67;;
40164;SDS011;25882;51.120;17.248;2023-05-21T21:52:31;8.48;;;4.10;;
40164;SDS011;25882;51.120;17.248;2023-05-21T21:54:57;5.85;;;3.33;;
40164;SDS011;25882;51.120;17.248;2023-05-21T21:57:23;6.28;;;3.83;;
40164;SDS011;25882;51.120;17.248;2023-05-21T21:59:51;7.72;;;3.83;;
40164;SDS011;25882;51.120;17.248;2023-05-21T22:02:19;7.28;;;3.95;;
40164;SDS011;25882;51.120;17.248;2023-05-21T22:04:45;6.80;;;3.47;;
40164;SDS011;25882;51.120;17.248;2023-05-21T22:07:12;7.65;;;4.35;;
40164;SDS011;25882;51.120;17.248;2023-05-21T22:09:42;6.20;;;3.65;;